Time;durP1;ratioP1;P1;durP2;ratioP2;P2;SDS_P1;SDS_P2;PMS_P1;PMS_P2;Temp;Humidity;BMP_temperature;BMP_pressure;BME280_temperature;BME280_humidity;BME280_pressure;Samples;Min_cycle;Max_cycle;Signal;HPM_P1;HPM_P2
2021/12/18 00:01:17;;;;;;;27.20;17.33;;;5.00;82.30;;;;;;5112630;28;20676;-60
2021/12/18 00:03:44;;;;;;;28.17;17.02;;;4.90;82.80;;;;;;5111221;28;20227;-58
2021/12/18 00:06:13;;;;;;;26.65;19.10;;;4.80;83.40;;;;;;5112543;28;20203;-59
2021/12/18 00:08:39;;;;;;;25.13;16.30;;;4.90;83.70;;;;;;5112139;28;20566;-57
2021/12/18 00:11:07;;;;;;;24.42;16.50;;;5.10;83.10;;;;;;5112315;28;20310;-56
2021/12/18 00:13:34;;;;;;;27.63;18.30;;;5.10;83.40;;;;;;5112518;28;20741;-59
2021/12/18 00:16:02;;;;;;;28.38;16.90;;;5.20;82.90;;;;;;5112442;28;20203;-58
2021/12/18 00:18:30;;;;;;;26.65;16.67;;;5.30;82.40;;;;;;5110964;28;20242;-58
2021/12/18 00:20:57;;;;;;;25.33;16.10;;;5.40;82.50;;;;;;5112848;28;20210;-57
2021/12/18 00:23:26;;;;;;;24.35;15.30;;;5.30;82.50;;;;;;5112786;28;20215;-59
2021/12/18 00:25:53;;;;;;;26.33;16.15;;;5.30;82.80;;;;;;5112978;28;20206;-58
2021/12/18 00:28:21;;;;;;;27.75;17.00;;;5.30;82.60;;;;;;5099748;28;20227;-58
2021/12/18 00:30:47;;;;;;;25.10;16.38;;;5.40;82.30;;;;;;5092525;28;20295;-58
2021/12/18 00:33:15;;;;;;;30.08;18.58;;;5.50;82.20;;;;;;5091188;28;20207;-58
2021/12/18 00:35:42;;;;;;;25.40;16.15;;;5.50;81.80;;;;;;5112049;28;20200;-57
2021/12/18 00:38:09;;;;;;;28.58;17.25;;;5.60;81.40;;;;;;5112037;28;20227;-60
2021/12/18 00:40:46;;;;;;;27.58;16.30;;;5.60;80.80;;;;;;5112145;28;20211;-59
2021/12/18 00:43:23;;;;;;;23.20;15.63;;;5.70;80.80;;;;;;5111869;28;20227;-58
2021/12/18 00:45:51;;;;;;;24.70;15.77;;;5.60;80.80;;;;;;5111896;28;20199;-58
2021/12/18 00:48:18;;;;;;;22.75;16.02;;;5.60;80.80;;;;;;5110623;28;20206;-58
2021/12/18 00:50:45;;;;;;;25.70;15.85;;;5.70;80.60;;;;;;5112484;28;20241;-57
2021/12/18 00:53:12;;;;;;;27.17;15.90;;;5.70;80.20;;;;;;5112748;28;20308;-56
2021/12/18 00:55:40;;;;;;;22.40;16.65;;;5.60;80.30;;;;;;5112695;28;20202;-59
2021/12/18 00:58:08;;;;;;;25.73;17.13;;;5.50;80.20;;;;;;5112502;28;20318;-58
2021/12/18 01:00:38;;;;;;;24.75;15.95;;;5.60;80.60;;;;;;5112509;28;20228;-59
2021/12/18 01:03:07;;;;;;;23.88;15.82;;;5.70;80.40;;;;;;5111676;28;20227;-58
2021/12/18 01:05:34;;;;;;;27.45;16.70;;;5.70;80.30;;;;;;5112688;28;20599;-58
2021/12/18 01:08:01;;;;;;;25.25;15.57;;;5.50;80.40;;;;;;5116001;28;20294;-59
2021/12/18 01:10:46;;;;;;;26.58;16.52;;;5.50;80.20;;;;;;5116269;28;20676;-59
2021/12/18 01:13:20;;;;;;;24.10;15.70;;;5.40;80.70;;;;;;5116152;28;20199;-59
2021/12/18 01:15:50;;;;;;;28.00;17.75;;;5.50;80.40;;;;;;5116243;28;20249;-58
2021/12/18 01:23:45;;;;;;;27.58;15.63;;;5.40;80.30;;;;;;5116084;28;20198;-58
2021/12/18 01:26:13;;;;;;;28.80;16.98;;;5.40;80.10;;;;;;5115964;28;20294;-57
2021/12/18 01:28:41;;;;;;;25.77;15.52;;;5.30;79.90;;;;;;5115909;28;20203;-56
2021/12/18 01:31:09;;;;;;;27.60;17.50;;;5.00;80.60;;;;;;5115822;28;20334;-59
2021/12/18 01:33:36;;;;;;;28.13;16.58;;;5.00;81.30;;;;;;5114511;28;20624;-59
2021/12/18 01:36:03;;;;;;;23.60;16.13;;;5.10;81.10;;;;;;5115728;28;20204;-56
2021/12/18 01:38:31;;;;;;;24.90;15.63;;;5.10;81.00;;;;;;5115645;28;20224;-58
2021/12/18 01:40:59;;;;;;;25.55;15.00;;;5.00;81.40;;;;;;5115705;28;20575;-57
2021/12/18 01:46:36;;;;;;;30.10;15.85;;;4.90;81.60;;;;;;5076342;28;20196;-56
2021/12/18 01:52:05;;;;;;;27.00;16.95;;;4.70;82.00;;;;;;5115517;28;20289;-57
2021/12/18 01:54:32;;;;;;;26.98;16.20;;;4.70;81.90;;;;;;5115440;28;20294;-56
2021/12/18 01:57:00;;;;;;;27.55;16.50;;;4.90;81.80;;;;;;5115182;28;20563;-56
2021/12/18 01:59:35;;;;;;;27.05;16.98;;;5.00;81.20;;;;;;5115225;28;20317;-56
2021/12/18 02:02:04;;;;;;;28.55;15.18;;;5.00;81.30;;;;;;5115188;28;20199;-56
2021/12/18 02:04:31;;;;;;;27.48;16.90;;;5.10;81.20;;;;;;5113833;28;20206;-56
2021/12/18 02:07:00;;;;;;;30.08;17.38;;;5.00;80.50;;;;;;5115148;28;20740;-56
2021/12/18 02:09:36;;;;;;;29.58;19.08;;;4.70;81.90;;;;;;5115041;28;20520;-58
2021/12/18 02:12:03;;;;;;;26.65;16.92;;;4.80;81.70;;;;;;5115109;28;20210;-56
2021/12/18 02:19:34;;;;;;;27.65;16.25;;;5.00;81.40;;;;;;5115050;28;20278;-58
2021/12/18 02:20:25;;;;;;;28.13;17.08;;;5.00;81.30;;;;;;5113520;27;20219;-57
2021/12/18 02:22:55;;;;;;;30.40;18.65;;;5.00;81.20;;;;;;5114870;28;20206;-57
2021/12/18 02:25:24;;;;;;;29.33;17.05;;;5.10;80.90;;;;;;5114774;28;20207;-58
2021/12/18 02:27:52;;;;;;;31.33;19.08;;;5.10;80.50;;;;;;5114798;28;20666;-56
2021/12/18 02:30:21;;;;;;;26.77;17.20;;;5.20;80.40;;;;;;5114642;28;20596;-57
2021/12/18 02:32:49;;;;;;;28.48;16.90;;;5.10;80.50;;;;;;5114661;28;20199;-56
2021/12/18 02:35:28;;;;;;;26.27;16.05;;;5.10;80.80;;;;;;5113311;28;20207;-58
2021/12/18 02:38:07;;;;;;;29.98;16.38;;;5.00;80.90;;;;;;5114537;28;20221;-57
2021/12/18 02:43:20;;;;;;;26.65;16.58;;;4.90;81.20;;;;;;5114382;28;20230;-57
2021/12/18 02:45:46;;;;;;;27.00;16.33;;;5.00;81.20;;;;;;5114316;28;20202;-56
2021/12/18 02:48:14;;;;;;;26.20;16.52;;;5.00;81.00;;;;;;5112938;28;20773;-59
2021/12/18 02:50:42;;;;;;;26.90;15.10;;;5.10;80.70;;;;;;5114352;28;20199;-57
2021/12/18 02:53:09;;;;;;;25.63;15.25;;;4.90;80.20;;;;;;5114234;28;20269;-57
2021/12/18 02:55:36;;;;;;;26.55;15.30;;;4.70;81.30;;;;;;5114105;28;20209;-56
2021/12/18 02:58:03;;;;;;;28.33;16.73;;;4.70;81.50;;;;;;5114084;28;20290;-58
2021/12/18 03:00:30;;;;;;;24.75;15.40;;;4.50;82.40;;;;;;5114225;28;20572;-56
2021/12/18 03:02:58;;;;;;;26.38;15.55;;;4.50;82.50;;;;;;5114152;28;20303;-56
2021/12/18 03:05:32;;;;;;;27.83;16.55;;;4.40;82.70;;;;;;5112816;28;20245;-56
2021/12/18 03:08:09;;;;;;;28.33;15.90;;;4.30;82.80;;;;;;5113884;28;20286;-56
2021/12/18 03:22:30;;;;;;;26.00;15.82;;;4.70;82.10;;;;;;5113873;28;20652;-58
2021/12/18 03:24:55;;;;;;;30.65;16.70;;;4.80;81.60;;;;;;5113429;28;20199;-56
2021/12/18 03:27:23;;;;;;;29.65;17.30;;;4.70;81.70;;;;;;5113699;28;20255;-57
2021/12/18 03:29:51;;;;;;;29.50;16.30;;;4.80;81.80;;;;;;5112858;28;20299;-57
2021/12/18 03:32:18;;;;;;;30.83;16.23;;;4.80;81.40;;;;;;5113615;28;20195;-58
2021/12/18 03:34:45;;;;;;;25.20;15.70;;;4.90;81.10;;;;;;5112095;28;20199;-57
2021/12/18 03:37:13;;;;;;;26.02;16.52;;;4.90;81.00;;;;;;5113482;28;20294;-57
2021/12/18 03:39:40;;;;;;;32.03;16.70;;;4.80;81.30;;;;;;5113431;28;20227;-58
2021/12/18 03:42:08;;;;;;;29.08;15.80;;;4.80;81.30;;;;;;5113450;28;20514;-57
2021/12/18 03:44:36;;;;;;;29.08;16.75;;;4.80;81.40;;;;;;5113342;28;20330;-57
2021/12/18 03:47:04;;;;;;;27.92;15.18;;;4.80;81.40;;;;;;5113419;28;20203;-58
2021/12/18 03:49:31;;;;;;;30.88;17.35;;;4.90;81.00;;;;;;5111891;28;20229;-58
2021/12/18 03:51:58;;;;;;;30.90;16.70;;;4.80;81.10;;;;;;5113421;28;20203;-58
2021/12/18 03:54:25;;;;;;;27.30;15.48;;;4.60;81.60;;;;;;5113392;28;20619;-59
2021/12/18 03:56:52;;;;;;;28.77;16.83;;;4.40;82.30;;;;;;5113369;28;20205;-58
2021/12/18 03:59:20;;;;;;;29.05;16.30;;;4.40;82.60;;;;;;5113144;28;20230;-58
2021/12/18 04:01:47;;;;;;;27.30;16.30;;;4.40;82.80;;;;;;5113182;28;20237;-59
2021/12/18 04:04:15;;;;;;;31.30;16.45;;;4.50;82.40;;;;;;5111746;28;20206;-60
2021/12/18 04:06:42;;;;;;;28.15;17.02;;;4.40;82.70;;;;;;5113165;28;20303;-57
2021/12/18 04:09:11;;;;;;;29.17;15.25;;;4.30;82.80;;;;;;5113223;28;20207;-57
2021/12/18 04:11:38;;;;;;;30.42;16.50;;;4.40;82.60;;;;;;5113076;28;20214;-58
2021/12/18 04:14:05;;;;;;;27.27;15.88;;;4.30;83.10;;;;;;5113053;28;20213;-59
2021/12/18 04:16:34;;;;;;;25.92;14.32;;;4.30;83.30;;;;;;5112982;28;20214;-58
2021/12/18 04:19:01;;;;;;;28.63;15.05;;;4.20;83.40;;;;;;5111570;28;20336;-57
2021/12/18 04:21:29;;;;;;;24.27;14.85;;;4.30;83.20;;;;;;5113113;28;20206;-59
2021/12/18 04:23:56;;;;;;;29.45;15.55;;;4.40;82.50;;;;;;5112988;28;20206;-58
2021/12/18 04:26:22;;;;;;;24.90;14.73;;;4.30;82.20;;;;;;5113062;28;20203;-59
2021/12/18 04:28:49;;;;;;;29.38;16.02;;;4.10;82.50;;;;;;5112924;28;20222;-58
2021/12/18 04:31:17;;;;;;;28.83;15.23;;;4.00;82.90;;;;;;5113025;28;20222;-58
2021/12/18 04:33:45;;;;;;;26.73;14.93;;;4.00;83.10;;;;;;5111546;28;20210;-58
2021/12/18 04:36:12;;;;;;;28.98;16.35;;;4.10;83.30;;;;;;5113011;28;20564;-58
2021/12/18 04:38:39;;;;;;;26.55;16.63;;;4.20;83.10;;;;;;5112893;28;20227;-57
2021/12/18 04:41:06;;;;;;;28.70;15.32;;;4.10;83.10;;;;;;5114973;28;20729;-59
2021/12/18 04:43:33;;;;;;;27.30;15.10;;;4.30;82.60;;;;;;5116622;28;20767;-57
2021/12/18 04:46:00;;;;;;;24.17;13.43;;;4.30;82.00;;;;;;5116645;28;20214;-57
2021/12/18 04:48:27;;;;;;;22.00;13.95;;;4.20;82.20;;;;;;5115223;28;20226;-56
2021/12/18 04:50:55;;;;;;;27.00;14.77;;;4.00;82.50;;;;;;5116754;28;20203;-59
2021/12/18 04:53:22;;;;;;;26.27;14.07;;;3.90;83.40;;;;;;5116662;28;20204;-57
2021/12/18 04:55:49;;;;;;;24.08;13.70;;;4.00;83.30;;;;;;5116627;28;20199;-58
2021/12/18 04:58:16;;;;;;;23.65;13.55;;;4.00;83.30;;;;;;5116433;28;20559;-57
2021/12/18 05:00:47;;;;;;;23.85;13.80;;;3.90;83.40;;;;;;5116386;28;20592;-57
2021/12/18 05:03:16;;;;;;;26.40;15.10;;;4.00;83.40;;;;;;5115107;28;20261;-59
2021/12/18 05:05:43;;;;;;;25.60;14.82;;;4.00;83.50;;;;;;5116369;28;20671;-57
2021/12/18 05:08:11;;;;;;;30.05;16.10;;;4.00;83.10;;;;;;5116357;28;20669;-58
2021/12/18 05:10:38;;;;;;;27.67;14.48;;;3.90;83.10;;;;;;5116224;28;20372;-60
2021/12/18 05:13:05;;;;;;;22.70;12.18;;;3.90;83.90;;;;;;5116231;28;20291;-59
2021/12/18 05:15:33;;;;;;;25.75;14.65;;;4.00;83.20;;;;;;5116271;28;20221;-59
2021/12/18 05:18:00;;;;;;;24.15;12.88;;;3.90;82.90;;;;;;5116230;28;20650;-58
2021/12/18 05:20:28;;;;;;;25.83;15.50;;;3.60;83.90;;;;;;5115172;28;20231;-58
2021/12/18 05:22:54;;;;;;;26.35;13.88;;;3.40;85.20;;;;;;5116144;28;20209;-58
2021/12/18 05:25:23;;;;;;;28.17;15.50;;;3.50;84.90;;;;;;5116109;28;20195;-58
2021/12/18 05:27:50;;;;;;;24.13;13.77;;;3.50;84.90;;;;;;5115871;28;20196;-57
2021/12/18 05:30:17;;;;;;;27.88;14.75;;;3.60;84.20;;;;;;5115948;28;20203;-57
2021/12/18 05:32:44;;;;;;;27.83;14.70;;;3.50;84.70;;;;;;5115822;28;20206;-58
2021/12/18 05:35:13;;;;;;;24.38;13.07;;;3.60;84.30;;;;;;5114532;28;20239;-57
2021/12/18 05:37:49;;;;;;;24.48;12.63;;;3.50;84.40;;;;;;5115850;28;20199;-58
2021/12/18 05:40:19;;;;;;;22.95;14.00;;;3.50;84.50;;;;;;5115582;28;20227;-57
2021/12/18 05:42:49;;;;;;;21.52;12.77;;;3.50;84.60;;;;;;5115639;28;20238;-58
2021/12/18 05:45:15;;;;;;;25.33;14.65;;;3.40;85.00;;;;;;5115490;28;20564;-57
2021/12/18 05:47:44;;;;;;;23.38;12.98;;;3.30;85.20;;;;;;5115540;28;20219;-57
2021/12/18 05:50:12;;;;;;;25.67;13.40;;;3.40;85.20;;;;;;5114155;28;20211;-57
2021/12/18 05:52:39;;;;;;;26.42;14.60;;;3.30;84.60;;;;;;5114608;28;20561;-58
2021/12/18 05:55:07;;;;;;;25.38;14.10;;;2.90;85.50;;;;;;5115597;28;20234;-57
2021/12/18 05:57:34;;;;;;;19.95;12.93;;;2.70;87.40;;;;;;5115401;28;20210;-57
2021/12/18 06:00:06;;;;;;;22.02;13.35;;;2.80;87.20;;;;;;5115298;28;20238;-60
2021/12/18 06:02:33;;;;;;;23.67;13.55;;;3.00;87.00;;;;;;5115279;28;20654;-57
2021/12/18 06:05:00;;;;;;;25.75;14.02;;;2.90;86.40;;;;;;5113908;28;20195;-56
2021/12/18 06:07:32;;;;;;;25.35;13.18;;;2.90;87.30;;;;;;5115245;28;20646;-58
2021/12/18 06:10:00;;;;;;;27.30;14.70;;;3.00;87.10;;;;;;5115176;28;20678;-57
2021/12/18 06:12:27;;;;;;;27.33;15.40;;;3.20;86.50;;;;;;5115080;28;20200;-56
2021/12/18 06:14:54;;;;;;;25.38;13.70;;;3.50;85.70;;;;;;5115131;28;20295;-58
2021/12/18 06:17:22;;;;;;;26.20;14.65;;;3.50;85.00;;;;;;5115032;28;20200;-57
2021/12/18 06:19:50;;;;;;;27.05;14.60;;;3.50;84.90;;;;;;5113378;28;20242;-57
2021/12/18 06:22:16;;;;;;;27.67;14.07;;;3.50;84.70;;;;;;5114895;28;20199;-57
2021/12/18 06:24:43;;;;;;;21.00;12.68;;;3.50;84.80;;;;;;5114843;28;20206;-57
2021/12/18 06:27:10;;;;;;;29.38;14.30;;;3.50;84.40;;;;;;5114812;28;20203;-56
2021/12/18 06:29:39;;;;;;;21.50;12.75;;;3.60;84.20;;;;;;5114849;28;20638;-57
2021/12/18 06:32:06;;;;;;;23.98;13.25;;;3.50;84.30;;;;;;5114774;28;20203;-59
2021/12/18 06:34:35;;;;;;;23.88;12.63;;;3.40;84.50;;;;;;5113198;28;20195;-57
2021/12/18 06:37:02;;;;;;;20.40;12.10;;;3.30;84.90;;;;;;5114474;28;20575;-61
2021/12/18 06:39:29;;;;;;;22.63;12.60;;;3.40;84.80;;;;;;5114628;28;20223;-57
2021/12/18 06:41:55;;;;;;;24.63;12.98;;;3.30;85.00;;;;;;5114578;28;20294;-58
2021/12/18 06:44:22;;;;;;;23.83;13.75;;;3.50;85.10;;;;;;5114424;28;20318;-58
2021/12/18 06:46:49;;;;;;;22.45;12.15;;;3.60;84.50;;;;;;5114285;28;20307;-60
2021/12/18 06:49:16;;;;;;;21.95;11.93;;;3.60;83.50;;;;;;5112990;28;20238;-58
2021/12/18 06:51:44;;;;;;;24.75;13.02;;;3.60;83.90;;;;;;5114352;28;20227;-57
2021/12/18 06:54:11;;;;;;;21.95;12.45;;;3.70;83.80;;;;;;5114360;28;20278;-58
2021/12/18 06:56:38;;;;;;;21.80;11.15;;;3.70;83.10;;;;;;5114289;28;20302;-57
2021/12/18 06:59:05;;;;;;;22.25;11.18;;;3.40;84.20;;;;;;5114149;28;20642;-58
2021/12/18 07:01:32;;;;;;;20.83;11.90;;;3.50;84.50;;;;;;5113950;28;20207;-57
2021/12/18 07:03:59;;;;;;;20.17;11.23;;;3.70;84.30;;;;;;5111928;28;20565;-58
2021/12/18 07:06:26;;;;;;;23.98;12.18;;;3.80;83.40;;;;;;5114167;28;20287;-56
2021/12/18 07:08:54;;;;;;;22.63;11.95;;;3.80;83.10;;;;;;5114055;28;20290;-56
2021/12/18 07:11:21;;;;;;;19.05;10.57;;;3.80;82.90;;;;;;5113984;28;20242;-57
2021/12/18 07:13:48;;;;;;;18.98;11.77;;;3.80;82.90;;;;;;5113900;28;20195;-56
2021/12/18 07:16:14;;;;;;;25.70;11.80;;;3.90;83.40;;;;;;5113794;28;20568;-56
2021/12/18 07:18:41;;;;;;;20.75;10.05;;;3.90;82.90;;;;;;5112549;28;20202;-56
2021/12/18 07:21:08;;;;;;;18.10;10.73;;;3.90;83.00;;;;;;5113756;28;20585;-56
2021/12/18 07:23:35;;;;;;;20.30;10.48;;;4.00;83.00;;;;;;5113881;28;20620;-56
2021/12/18 07:26:03;;;;;;;21.00;10.98;;;4.10;82.60;;;;;;5113730;28;20282;-56
2021/12/18 07:28:30;;;;;;;19.08;9.85;;;4.10;82.40;;;;;;5113672;28;20295;-56
2021/12/18 07:30:58;;;;;;;18.70;10.98;;;4.20;82.10;;;;;;5113675;28;20298;-56
2021/12/18 07:33:25;;;;;;;19.92;10.80;;;4.30;82.10;;;;;;5112321;28;20210;-56
2021/12/18 07:35:51;;;;;;;18.20;10.82;;;4.30;81.80;;;;;;5113496;28;20294;-56
2021/12/18 07:38:18;;;;;;;20.98;10.77;;;4.30;81.40;;;;;;5113519;28;20199;-57
2021/12/18 07:40:45;;;;;;;19.05;11.32;;;4.30;81.40;;;;;;5113395;28;20233;-56
2021/12/18 07:43:13;;;;;;;17.67;10.43;;;4.20;81.10;;;;;;5113275;28;20239;-56
2021/12/18 07:45:40;;;;;;;19.38;9.88;;;4.20;81.40;;;;;;5113528;28;20560;-57
2021/12/18 07:48:07;;;;;;;20.90;10.32;;;4.30;81.40;;;;;;5112503;28;20310;-57
2021/12/18 07:50:35;;;;;;;20.02;11.15;;;4.30;81.40;;;;;;5113061;28;20205;-56
2021/12/18 07:53:01;;;;;;;19.83;10.77;;;4.20;81.60;;;;;;5113436;28;20209;-56
2021/12/18 07:55:29;;;;;;;16.83;10.32;;;4.10;81.70;;;;;;5113300;28;20298;-57
2021/12/18 07:57:56;;;;;;;16.05;9.50;;;4.10;82.10;;;;;;5113147;28;20204;-56
2021/12/18 08:00:24;;;;;;;20.23;10.98;;;4.10;82.50;;;;;;5113123;28;20327;-56
2021/12/18 08:02:51;;;;;;;15.07;9.52;;;4.10;82.50;;;;;;5113175;28;20209;-57
2021/12/18 08:05:18;;;;;;;17.33;10.15;;;4.10;82.60;;;;;;5111981;28;20200;-57
2021/12/18 08:07:45;;;;;;;20.25;10.70;;;4.20;82.40;;;;;;5113230;28;20560;-57
2021/12/18 08:10:12;;;;;;;16.40;10.27;;;4.30;82.20;;;;;;5113165;28;20210;-58
2021/12/18 08:12:39;;;;;;;17.98;10.63;;;4.30;82.10;;;;;;5113105;28;20206;-58
2021/12/18 08:15:07;;;;;;;18.33;10.95;;;4.30;81.90;;;;;;5113588;28;20294;-58
2021/12/18 08:17:36;;;;;;;17.40;10.57;;;4.20;82.10;;;;;;5117440;28;20264;-58
2021/12/18 08:20:04;;;;;;;21.67;11.32;;;4.20;82.00;;;;;;5115997;28;20659;-58
2021/12/18 08:22:31;;;;;;;23.58;11.15;;;4.30;82.40;;;;;;5117346;28;20257;-59
2021/12/18 08:24:57;;;;;;;23.30;10.73;;;4.40;82.20;;;;;;5117166;28;20290;-59
2021/12/18 08:27:24;;;;;;;21.20;11.68;;;4.40;81.90;;;;;;5117706;28;20222;-57
2021/12/18 08:29:51;;;;;;;19.88;10.73;;;4.40;81.60;;;;;;5117161;28;20292;-57
2021/12/18 08:32:18;;;;;;;21.90;10.98;;;4.40;81.90;;;;;;5117113;28;20199;-57
2021/12/18 08:34:46;;;;;;;21.90;11.98;;;4.40;81.90;;;;;;5115705;28;20238;-58
2021/12/18 08:37:13;;;;;;;17.10;10.50;;;4.30;81.90;;;;;;5117020;28;20303;-58
2021/12/18 08:39:40;;;;;;;21.63;12.30;;;4.30;82.50;;;;;;5116712;28;20669;-56
2021/12/18 08:42:07;;;;;;;20.58;11.10;;;4.20;83.10;;;;;;5116910;28;20267;-57
2021/12/18 08:44:35;;;;;;;24.42;12.75;;;4.30;82.70;;;;;;5116667;28;20325;-57
2021/12/18 08:47:03;;;;;;;23.20;12.23;;;4.30;82.60;;;;;;5116827;28;20223;-56
2021/12/18 08:49:30;;;;;;;24.65;11.38;;;4.30;82.40;;;;;;5115394;28;20306;-58
2021/12/18 08:51:58;;;;;;;17.75;10.15;;;4.00;83.50;;;;;;5116740;28;20207;-59
2021/12/18 08:54:25;;;;;;;14.93;10.07;;;4.10;83.70;;;;;;5116623;28;20210;-57
2021/12/18 08:56:52;;;;;;;18.85;11.18;;;4.00;83.90;;;;;;5116584;28;20286;-57
2021/12/18 08:59:20;;;;;;;21.30;10.35;;;4.00;84.10;;;;;;5116610;28;20238;-59
2021/12/18 09:01:47;;;;;;;19.55;10.98;;;4.20;84.00;;;;;;5116436;28;20314;-59
2021/12/18 09:04:14;;;;;;;16.98;10.23;;;4.30;83.30;;;;;;5115207;28;20203;-59
2021/12/18 09:06:41;;;;;;;16.75;10.63;;;4.20;83.50;;;;;;5116272;28;20239;-58
2021/12/18 09:09:09;;;;;;;21.27;11.32;;;4.20;83.40;;;;;;5116342;28;20791;-57
2021/12/18 09:11:36;;;;;;;19.08;11.10;;;4.20;83.40;;;;;;5116286;28;20230;-57
2021/12/18 09:14:04;;;;;;;19.85;11.13;;;4.30;83.70;;;;;;5116361;28;20287;-59
2021/12/18 09:16:32;;;;;;;19.02;10.73;;;4.20;83.20;;;;;;5116137;28;20297;-57
2021/12/18 09:19:00;;;;;;;22.92;12.15;;;4.20;83.50;;;;;;5114814;28;20207;-59
2021/12/18 09:21:27;;;;;;;19.33;11.25;;;4.30;82.80;;;;;;5115874;28;20515;-60
2021/12/18 09:23:54;;;;;;;16.10;10.73;;;4.20;83.20;;;;;;5116010;28;20209;-57
2021/12/18 09:26:22;;;;;;;23.50;12.90;;;4.30;83.20;;;;;;5115599;28;20304;-59
2021/12/18 09:28:49;;;;;;;22.40;11.98;;;4.30;82.30;;;;;;5115391;28;20200;-59
2021/12/18 09:31:16;;;;;;;20.60;11.90;;;4.30;82.30;;;;;;5115878;28;20293;-57
2021/12/18 09:33:43;;;;;;;19.02;11.27;;;4.20;82.10;;;;;;5114534;27;20213;-59
2021/12/18 09:36:10;;;;;;;22.38;13.18;;;3.80;83.40;;;;;;5115785;28;20207;-59
2021/12/18 09:38:37;;;;;;;17.38;11.18;;;3.90;84.20;;;;;;5116009;28;20244;-57
2021/12/18 09:41:06;;;;;;;17.42;11.23;;;3.90;83.90;;;;;;5115663;28;20227;-57
2021/12/18 09:43:34;;;;;;;22.48;12.00;;;4.10;84.00;;;;;;5115546;28;20301;-59
2021/12/18 09:46:03;;;;;;;23.60;11.60;;;4.20;83.60;;;;;;5115651;28;20262;-59
2021/12/18 09:48:30;;;;;;;17.98;11.52;;;4.40;83.20;;;;;;5114183;28;20596;-58
2021/12/18 09:50:58;;;;;;;19.33;10.40;;;4.50;82.10;;;;;;5115669;28;20199;-59
2021/12/18 09:53:25;;;;;;;15.43;10.10;;;4.40;82.20;;;;;;5115605;27;20203;-60
2021/12/18 09:55:52;;;;;;;16.98;10.38;;;4.30;82.40;;;;;;5115526;28;20230;-57
2021/12/18 09:58:19;;;;;;;20.30;11.18;;;4.40;82.80;;;;;;5115421;28;20235;-57
2021/12/18 10:00:47;;;;;;;20.60;11.75;;;4.40;82.40;;;;;;5115297;28;20234;-59
2021/12/18 10:03:14;;;;;;;18.30;11.10;;;4.40;82.40;;;;;;5114015;28;20286;-58
2021/12/18 10:05:41;;;;;;;20.33;11.30;;;4.40;82.40;;;;;;5115401;28;20286;-57
2021/12/18 10:08:11;;;;;;;14.07;10.10;;;4.40;82.30;;;;;;5115347;28;20294;-58
2021/12/18 10:10:39;;;;;;;18.67;11.63;;;4.40;82.20;;;;;;5115084;28;20210;-57
2021/12/18 10:13:10;;;;;;;16.00;10.05;;;4.50;82.00;;;;;;5115184;28;20206;-57
2021/12/18 10:15:38;;;;;;;21.38;11.80;;;4.50;81.50;;;;;;5115068;28;20298;-57
2021/12/18 10:18:08;;;;;;;20.15;11.60;;;4.50;81.70;;;;;;5114828;28;20206;-57
2021/12/18 10:20:36;;;;;;;19.92;11.27;;;4.60;81.00;;;;;;5114688;28;20223;-58
2021/12/18 10:23:05;;;;;;;20.05;12.00;;;4.30;81.50;;;;;;5114958;28;20203;-60
2021/12/18 10:25:37;;;;;;;16.52;11.55;;;4.10;81.40;;;;;;5114864;27;20694;-59
2021/12/18 10:28:10;;;;;;;25.15;13.73;;;3.90;82.60;;;;;;5114683;28;20215;-57
2021/12/18 10:30:43;;;;;;;19.30;13.05;;;4.10;82.70;;;;;;5114805;28;20293;-58
2021/12/18 10:33:12;;;;;;;20.80;12.25;;;4.00;82.20;;;;;;5113821;28;20207;-57
2021/12/18 10:35:42;;;;;;;21.02;12.35;;;4.10;82.80;;;;;;5114639;28;20227;-57
2021/12/18 10:38:11;;;;;;;18.90;13.00;;;4.20;81.80;;;;;;5114446;28;20199;-58
2021/12/18 10:40:46;;;;;;;19.20;12.18;;;4.20;81.20;;;;;;5114439;28;20223;-57
2021/12/18 10:43:15;;;;;;;18.70;12.00;;;4.10;82.60;;;;;;5114391;28;20235;-58
2021/12/18 10:45:42;;;;;;;18.17;12.23;;;4.30;82.70;;;;;;5114458;28;20776;-58
2021/12/18 10:48:13;;;;;;;19.02;12.20;;;4.50;81.90;;;;;;5113778;28;20243;-58
2021/12/18 10:50:43;;;;;;;18.52;11.88;;;4.60;81.60;;;;;;5114446;28;20242;-57
2021/12/18 10:53:14;;;;;;;19.80;13.18;;;4.60;80.30;;;;;;5114224;28;20203;-57
2021/12/18 10:55:45;;;;;;;18.58;12.55;;;4.30;80.50;;;;;;5114297;28;20199;-59
2021/12/18 10:58:14;;;;;;;16.70;11.98;;;4.30;81.70;;;;;;5114319;28;20282;-57
2021/12/18 11:00:55;;;;;;;15.50;11.18;;;4.60;81.70;;;;;;5114211;28;20612;-57
2021/12/18 11:03:38;;;;;;;15.07;10.43;;;4.70;81.10;;;;;;5112881;28;20206;-58
2021/12/18 11:06:13;;;;;;;16.95;10.93;;;4.80;80.30;;;;;;5114186;28;20207;-58
2021/12/18 11:09:07;;;;;;;13.05;10.35;;;4.90;79.70;;;;;;5114306;28;20752;-57
2021/12/18 11:14:36;;;;;;;17.30;11.07;;;4.70;79.00;;;;;;5114100;28;20673;-57
2021/12/18 11:17:05;;;;;;;16.48;10.93;;;4.20;78.60;;;;;;5114012;28;20660;-57
2021/12/18 11:19:36;;;;;;;15.25;10.98;;;3.90;80.70;;;;;;5112642;28;20242;-58
2021/12/18 11:22:05;;;;;;;16.30;11.60;;;3.70;81.70;;;;;;5113793;28;20227;-58
2021/12/18 11:24:35;;;;;;;15.95;12.15;;;3.80;82.00;;;;;;5113676;28;20578;-57
2021/12/18 11:27:06;;;;;;;17.77;12.05;;;3.80;82.50;;;;;;5113676;28;20288;-58
2021/12/18 11:29:41;;;;;;;15.13;10.82;;;4.00;81.80;;;;;;5113730;28;20207;-57
2021/12/18 11:32:10;;;;;;;16.42;11.55;;;4.20;81.70;;;;;;5113694;28;20209;-59
2021/12/18 11:34:39;;;;;;;17.70;10.80;;;4.40;81.20;;;;;;5112313;28;20207;-58
2021/12/18 11:37:09;;;;;;;14.30;10.85;;;4.60;80.20;;;;;;5113597;28;20206;-59
2021/12/18 11:39:37;;;;;;;15.02;11.13;;;4.70;79.80;;;;;;5113565;28;20231;-60
2021/12/18 11:42:05;;;;;;;15.82;10.75;;;4.50;80.20;;;;;;5113453;28;20234;-59
2021/12/18 11:44:36;;;;;;;15.35;9.82;;;4.60;80.90;;;;;;5113249;28;20235;-58
2021/12/18 11:47:26;;;;;;;15.70;10.93;;;4.70;80.10;;;;;;5113614;28;20213;-57
2021/12/18 11:49:58;;;;;;;13.00;11.07;;;4.90;79.40;;;;;;5111579;28;20286;-59
2021/12/18 11:52:25;;;;;;;17.73;11.98;;;4.70;78.70;;;;;;5113396;28;20204;-58
2021/12/18 11:54:55;;;;;;;16.92;11.50;;;4.40;79.80;;;;;;5113398;28;20263;-58
2021/12/18 11:57:43;;;;;;;18.35;11.40;;;4.40;79.90;;;;;;5113273;28;20680;-59
2021/12/18 12:00:37;;;;;;;16.17;11.93;;;4.50;80.60;;;;;;5113252;28;20207;-61
2021/12/18 12:03:05;;;;;;;14.52;11.77;;;4.60;79.00;;;;;;5113120;28;20237;-58
2021/12/18 12:05:38;;;;;;;17.30;12.60;;;4.30;78.70;;;;;;5112457;28;20206;-58
2021/12/18 12:08:25;;;;;;;16.70;13.25;;;4.40;79.80;;;;;;5113001;28;20740;-57
2021/12/18 12:11:23;;;;;;;18.20;12.88;;;4.30;79.50;;;;;;5113025;28;20203;-57
2021/12/18 12:14:01;;;;;;;16.75;12.65;;;4.10;80.40;;;;;;5113119;28;20661;-57
2021/12/18 12:17:05;;;;;;;20.23;13.20;;;4.10;80.90;;;;;;5113055;28;20281;-58
2021/12/18 12:19:50;;;;;;;16.60;11.27;;;4.30;81.50;;;;;;5111703;28;20203;-58
2021/12/18 12:23:00;;;;;;;16.75;11.10;;;4.50;80.20;;;;;;5112960;28;20235;-58
2021/12/18 12:25:56;;;;;;;15.75;11.52;;;4.60;80.30;;;;;;5112861;28;20235;-58
2021/12/18 12:28:24;;;;;;;17.00;11.82;;;4.60;80.10;;;;;;5112897;28;20238;-58
2021/12/18 12:31:03;;;;;;;20.45;12.85;;;4.40;79.70;;;;;;5112883;28;20669;-57
2021/12/18 12:33:33;;;;;;;19.08;12.23;;;4.50;80.20;;;;;;5111619;28;20870;-58
2021/12/18 12:36:06;;;;;;;20.77;13.40;;;4.70;80.20;;;;;;5112895;28;20662;-58
2021/12/18 12:38:38;;;;;;;16.98;11.00;;;4.80;79.20;;;;;;5112805;28;20661;-57
2021/12/18 12:41:28;;;;;;;18.00;12.85;;;4.80;78.90;;;;;;5112890;28;20202;-58
2021/12/18 12:43:57;;;;;;;16.27;12.68;;;4.60;79.00;;;;;;5112620;28;20227;-58
2021/12/18 12:46:25;;;;;;;18.52;14.43;;;4.80;79.90;;;;;;5112817;28;20298;-58
2021/12/18 12:49:04;;;;;;;17.77;13.88;;;5.10;79.20;;;;;;5111527;28;20200;-58
2021/12/18 12:52:07;;;;;;;18.73;13.25;;;5.20;77.70;;;;;;5112765;28;20290;-57
2021/12/18 12:54:58;;;;;;;17.20;13.38;;;4.90;76.80;;;;;;5112698;28;20203;-57
2021/12/18 12:57:46;;;;;;;16.55;12.82;;;4.90;78.40;;;;;;5112790;28;20207;-57
2021/12/18 13:00:40;;;;;;;19.50;13.00;;;5.20;79.20;;;;;;5112798;28;20203;-57
2021/12/18 13:03:19;;;;;;;17.88;13.82;;;5.40;77.10;;;;;;5115877;28;20318;-57
2021/12/18 13:05:56;;;;;;;19.83;15.07;;;5.50;77.00;;;;;;5116346;28;20223;-58
2021/12/18 13:08:24;;;;;;;18.98;14.07;;;5.70;77.40;;;;;;5116397;28;20206;-58
2021/12/18 13:10:55;;;;;;;18.27;13.35;;;5.80;76.60;;;;;;5116221;28;20202;-58
2021/12/18 13:13:24;;;;;;;17.38;13.57;;;5.90;76.90;;;;;;5116264;28;20294;-58
2021/12/18 13:15:54;;;;;;;21.75;14.68;;;6.00;76.20;;;;;;5116192;28;20209;-57
2021/12/18 13:18:24;;;;;;;19.70;15.27;;;6.00;75.70;;;;;;5114885;28;20204;-59
2021/12/18 13:20:55;;;;;;;17.48;14.30;;;6.00;75.70;;;;;;5116117;28;20214;-59
2021/12/18 13:23:24;;;;;;;18.30;14.88;;;6.00;75.10;;;;;;5115938;28;20254;-59